createdAt,value
2023-03-01T00:02:32.362Z,101930.97
2023-03-01T00:05:34.752Z,101935.13
2023-03-01T00:08:37.440Z,101942.00
2023-03-01T00:11:40.159Z,101942.69
2023-03-01T00:14:42.589Z,101946.88
2023-03-01T00:17:45.001Z,101918.59
2023-03-01T00:20:54.160Z,101949.19
2023-03-01T00:23:56.922Z,101940.22
2023-03-01T00:26:59.631Z,101942.34
2023-03-01T00:30:02.791Z,101944.50
2023-03-01T00:33:05.168Z,101940.16
2023-03-01T00:36:08.233Z,101931.72
2023-03-01T00:39:15.775Z,101914.19
2023-03-01T00:42:18.826Z,101913.91
2023-03-01T00:45:21.219Z,101909.25
2023-03-01T00:48:23.547Z,101907.28
2023-03-01T00:51:28.156Z,101896.25
2023-03-01T00:54:33.115Z,101904.47
2023-03-01T00:57:35.919Z,101870.69
2023-03-01T01:00:38.422Z,101912.13
2023-03-01T01:03:40.776Z,101913.41
2023-03-01T01:06:47.753Z,101911.31
2023-03-01T01:09:50.086Z,101916.06
2023-03-01T01:12:53.036Z,101914.50
2023-03-01T01:15:55.390Z,101933.34
2023-03-01T01:18:58.738Z,101920.34
2023-03-01T01:22:01.028Z,101915.22
2023-03-01T01:25:03.442Z,101908.34
2023-03-01T01:28:06.006Z,101910.00
2023-03-01T01:31:08.957Z,101907.69
2023-03-01T01:34:17.420Z,101916.56
2023-03-01T01:37:19.852Z,101902.34
2023-03-01T01:40:22.318Z,101895.88
2023-03-01T01:43:30.296Z,101882.38
2023-03-01T01:46:41.046Z,101880.63
2023-03-01T01:49:46.695Z,101887.69
2023-03-01T01:52:50.490Z,101879.19
2023-03-01T01:55:58.166Z,101871.16
2023-03-01T01:59:03.202Z,101862.13
2023-03-01T02:02:06.227Z,101827.38
2023-03-01T02:05:22.579Z,101847.16
2023-03-01T02:08:28.148Z,101857.13
2023-03-01T02:11:33.172Z,101851.25
2023-03-01T02:14:35.707Z,101836.75
2023-03-01T02:17:38.680Z,101827.19
2023-03-01T02:21:07.308Z,101831.25
2023-03-01T02:24:24.473Z,101830.94
2023-03-01T02:27:34.488Z,101836.59
2023-03-01T02:30:37.621Z,101838.47
2023-03-01T02:33:40.832Z,101839.81
2023-03-01T02:36:49.069Z,101849.75
2023-03-01T02:39:54.839Z,101843.72
2023-03-01T02:43:00.571Z,101836.38
2023-03-01T02:46:08.918Z,101839.28
2023-03-01T02:49:20.685Z,101840.78
2023-03-01T02:52:47.504Z,101834.94
2023-03-01T02:55:50.241Z,101827.38
2023-03-01T02:58:54.201Z,101829.13
2023-03-01T03:01:57.241Z,101838.28
2023-03-01T03:05:00.709Z,101835.88
2023-03-01T03:08:04.592Z,101827.22
2023-03-01T03:11:11.302Z,101826.06
2023-03-01T03:14:16.004Z,101817.34
2023-03-01T03:17:21.151Z,101824.25
2023-03-01T03:20:26.299Z,101829.56
2023-03-01T03:23:30.547Z,101828.19
2023-03-01T03:26:33.533Z,101829.03
2023-03-01T03:29:36.045Z,101815.09
2023-03-01T03:32:38.387Z,101817.38
2023-03-01T03:35:44.248Z,101803.44
2023-03-01T03:38:47.011Z,101808.25
2023-03-01T03:41:49.311Z,101802.28
2023-03-01T03:44:51.616Z,101802.50
2023-03-01T03:47:54.013Z,101800.94
2023-03-01T03:50:57.652Z,101801.53
2023-03-01T03:54:00.108Z,101797.66
2023-03-01T03:57:02.534Z,101783.91
2023-03-01T04:00:06.477Z,101785.81
2023-03-01T04:03:16.702Z,101783.09
2023-03-01T04:06:18.986Z,101780.28
2023-03-01T04:09:21.365Z,101774.97
2023-03-01T04:12:24.165Z,101772.16
2023-03-01T04:15:28.118Z,101771.59
2023-03-01T04:18:32.617Z,101764.50
2023-03-01T04:21:34.941Z,101774.53
2023-03-01T04:24:37.606Z,101778.94
2023-03-01T04:27:39.854Z,101776.72
2023-03-01T04:30:42.532Z,101757.06
2023-03-01T04:33:47.216Z,101782.19
2023-03-01T04:36:49.651Z,101778.03
2023-03-01T04:39:52.497Z,101774.53
2023-03-01T04:42:55.302Z,101773.03
2023-03-01T04:46:03.947Z,101777.22
2023-03-01T04:49:06.485Z,101771.00
2023-03-01T04:52:08.982Z,101766.81
2023-03-01T04:55:12.532Z,101743.63
2023-03-01T04:58:15.056Z,101768.28
2023-03-01T05:01:19.966Z,101766.00
2023-03-01T05:04:22.559Z,101767.03
2023-03-01T05:07:25.953Z,101770.06
2023-03-01T05:10:34.735Z,101753.25
2023-03-01T05:13:41.108Z,101765.41
2023-03-01T05:16:43.848Z,101764.16
2023-03-01T05:19:47.282Z,101755.69
2023-03-01T05:22:50.149Z,101761.16
2023-03-01T05:25:53.440Z,101751.09
2023-03-01T05:29:00.300Z,101758.28
2023-03-01T05:32:04.133Z,101752.47
2023-03-01T05:35:07.004Z,101754.34
2023-03-01T05:38:10.374Z,101750.16
2023-03-01T05:41:18.194Z,101748.50
2023-03-01T05:44:20.739Z,101749.84
2023-03-01T05:47:23.125Z,101754.88
2023-03-01T05:50:28.327Z,101758.22
2023-03-01T05:53:30.942Z,101752.13
2023-03-01T05:56:37.203Z,101770.06
2023-03-01T05:59:39.497Z,101771.25
2023-03-01T06:02:42.254Z,101772.16
2023-03-01T06:05:45.651Z,101751.31
2023-03-01T06:08:48.043Z,101760.59
2023-03-01T06:11:50.421Z,101761.47
2023-03-01T06:14:52.884Z,101763.34
2023-03-01T06:18:00.114Z,101766.09
2023-03-01T06:21:02.893Z,101765.88
2023-03-01T06:24:07.126Z,101759.78
2023-03-01T06:27:09.644Z,101668.94
2023-03-01T06:30:13.631Z,101761.44
2023-03-01T06:33:16.017Z,101754.78
2023-03-01T06:36:19.794Z,101752.16
2023-03-01T06:39:22.473Z,101742.94
2023-03-01T06:42:24.831Z,101750.13
2023-03-01T06:45:27.134Z,101768.91
2023-03-01T06:48:29.428Z,101765.78
2023-03-01T06:51:31.801Z,101773.56
2023-03-01T06:54:34.107Z,101774.28
2023-03-01T06:57:36.777Z,101784.44
2023-03-01T07:00:41.893Z,101781.59
2023-03-01T07:03:45.453Z,101782.19
2023-03-01T07:06:55.278Z,101780.16
2023-03-01T07:09:57.687Z,101779.75
2023-03-01T07:13:00.219Z,101776.22
2023-03-01T07:16:02.639Z,101779.06
2023-03-01T07:19:06.435Z,101783.59
2023-03-01T07:22:11.535Z,101778.13
2023-03-01T07:25:14.022Z,101780.28
2023-03-01T07:28:16.295Z,101767.19
2023-03-01T07:31:18.629Z,101768.22
2023-03-01T07:34:21.039Z,101761.03
2023-03-01T07:37:23.478Z,101763.03
2023-03-01T07:40:25.813Z,101745.44
2023-03-01T07:43:29.138Z,101745.63
2023-03-01T07:46:31.825Z,101746.78
2023-03-01T07:49:34.480Z,101752.81
2023-03-01T07:52:36.796Z,101753.28
2023-03-01T07:55:39.109Z,101764.38
2023-03-01T07:58:43.351Z,101759.97
2023-03-01T08:01:45.798Z,101758.94
2023-03-01T08:04:48.248Z,101732.00
2023-03-01T08:07:50.589Z,101755.78
2023-03-01T08:10:52.986Z,101769.06
2023-03-01T08:13:55.920Z,101769.25
2023-03-01T08:16:58.493Z,101768.84
2023-03-01T08:20:00.884Z,101765.69
2023-03-01T08:23:03.192Z,101767.81
2023-03-01T08:26:13.389Z,101754.31
2023-03-01T08:29:15.793Z,101779.75
2023-03-01T08:32:18.281Z,101777.09
2023-03-01T08:35:22.077Z,101763.66
2023-03-01T08:38:24.607Z,101761.16
2023-03-01T08:41:27.633Z,101749.00
2023-03-01T08:44:30.285Z,101750.31
2023-03-01T08:47:34.579Z,101748.97
2023-03-01T08:50:37.374Z,101750.06
2023-03-01T08:53:40.505Z,101750.41
2023-03-01T08:56:43.344Z,101745.16
2023-03-01T08:59:45.773Z,101749.69
2023-03-01T09:02:48.048Z,101748.94
2023-03-01T09:05:51.398Z,101758.47
2023-03-01T09:08:54.436Z,101749.50
2023-03-01T09:11:56.784Z,101742.88
2023-03-01T09:14:59.296Z,101742.34
2023-03-01T09:18:02.098Z,101743.22
2023-03-01T09:21:15.856Z,101737.75
2023-03-01T09:24:18.263Z,101724.44
2023-03-01T09:27:20.771Z,101726.16
2023-03-01T09:30:23.587Z,101722.78
2023-03-01T09:33:25.905Z,101735.97
2023-03-01T09:36:28.697Z,101724.81
2023-03-01T09:39:31.420Z,101724.91
2023-03-01T09:42:37.717Z,101730.38
2023-03-01T09:45:43.755Z,101725.19
2023-03-01T09:49:07.314Z,101713.25
2023-03-01T09:52:37.567Z,101716.06
2023-03-01T09:56:07.060Z,101721.19
2023-03-01T09:59:15.472Z,101718.97
2023-03-01T10:02:28.696Z,101709.56
2023-03-01T10:05:40.005Z,101699.25
2023-03-01T10:08:45.271Z,101703.06
2023-03-01T10:11:53.434Z,101699.66
2023-03-01T10:15:01.317Z,101705.72
2023-03-01T10:18:08.938Z,101712.78
2023-03-01T10:21:17.845Z,101711.38
2023-03-01T10:24:22.723Z,101701.84
2023-03-01T10:27:38.286Z,101707.78
2023-03-01T10:30:43.463Z,101710.50
2023-03-01T10:33:45.992Z,101714.03
2023-03-01T10:36:53.198Z,101705.25
2023-03-01T10:39:57.433Z,101690.91
2023-03-01T10:43:01.714Z,101689.41
2023-03-01T10:46:04.152Z,101696.34
2023-03-01T10:49:15.003Z,101686.25
2023-03-01T10:52:23.007Z,101691.03
2023-03-01T10:55:45.746Z,101684.81
2023-03-01T10:59:05.804Z,101693.38
2023-03-01T11:02:23.444Z,101682.25
2023-03-01T11:05:29.567Z,101682.94
2023-03-01T11:08:53.084Z,101683.78
2023-03-01T11:11:59.797Z,101672.59
2023-03-01T11:15:03.501Z,101677.41
2023-03-01T11:18:14.058Z,101675.47
2023-03-01T11:21:17.519Z,101672.84
2023-03-01T11:24:21.462Z,101668.63
2023-03-01T11:27:28.606Z,101670.09
2023-03-01T11:30:36.018Z,101667.59
2023-03-01T11:34:00.864Z,101671.28
2023-03-01T11:37:09.361Z,101670.44
2023-03-01T11:40:13.389Z,101667.53
2023-03-01T11:43:34.619Z,101657.31
2023-03-01T11:46:46.452Z,101661.84
2023-03-01T11:50:18.047Z,101666.72
2023-03-01T11:53:26.266Z,101664.16
2023-03-01T11:56:35.066Z,101656.94
2023-03-01T11:59:55.901Z,101665.78
2023-03-01T12:02:58.130Z,101668.75
2023-03-01T12:06:34.075Z,101666.19
2023-03-01T12:10:05.379Z,101665.50
2023-03-01T12:13:33.723Z,101662.72
2023-03-01T12:17:00.483Z,101659.94
2023-03-01T12:20:20.859Z,101658.88
2023-03-01T12:23:39.103Z,101652.69
2023-03-01T12:26:56.165Z,101654.97
2023-03-01T12:30:26.558Z,101651.41
2023-03-01T12:33:51.561Z,101645.81
2023-03-01T12:36:56.584Z,101638.06
2023-03-01T12:40:01.673Z,101637.78
2023-03-01T12:43:22.750Z,101619.88
2023-03-01T12:46:43.619Z,101634.75
2023-03-01T12:50:05.604Z,101623.91
2023-03-01T12:53:21.914Z,101620.31
2023-03-01T12:56:30.359Z,101620.13
2023-03-01T12:59:43.436Z,101622.25
2023-03-01T13:02:48.456Z,101618.00
2023-03-01T13:06:19.444Z,101616.59
2023-03-01T13:09:31.995Z,101616.28
2023-03-01T13:12:47.654Z,101613.53
2023-03-01T13:15:52.372Z,101616.38
2023-03-01T13:19:17.678Z,101614.53
2023-03-01T13:22:29.195Z,101604.56
2023-03-01T13:25:34.763Z,101618.78
2023-03-01T13:28:50.070Z,101620.44
2023-03-01T13:31:52.399Z,101618.78
2023-03-01T13:35:06.010Z,101608.25
2023-03-01T13:38:45.623Z,101616.00
2023-03-01T13:41:53.124Z,101601.31
2023-03-01T13:44:55.831Z,101604.25
2023-03-01T13:48:05.924Z,101607.91
2023-03-01T13:51:12.885Z,101596.38
2023-03-01T13:54:16.989Z,101596.81
2023-03-01T13:57:24.224Z,101594.25
2023-03-01T14:00:37.428Z,101589.94
2023-03-01T14:03:44.553Z,101584.66
2023-03-01T14:06:46.900Z,101588.72
2023-03-01T14:09:53.866Z,101587.38
2023-03-01T14:13:31.462Z,101587.59
2023-03-01T14:17:17.305Z,101581.22
2023-03-01T14:20:23.482Z,101584.34
2023-03-01T14:23:27.369Z,101582.03
2023-03-01T14:26:29.959Z,101574.06
2023-03-01T14:29:38.158Z,101581.31
2023-03-01T14:32:40.566Z,101581.75
2023-03-01T14:35:42.906Z,101577.25
2023-03-01T14:38:48.300Z,101580.19
2023-03-01T14:41:52.209Z,101575.28
2023-03-01T14:44:56.107Z,101572.94
2023-03-01T14:48:01.574Z,101562.78
2023-03-01T14:51:06.828Z,101568.66
2023-03-01T14:54:31.893Z,101562.84
2023-03-01T14:57:34.375Z,101563.19
2023-03-01T15:00:37.226Z,101560.59
2023-03-01T15:03:44.959Z,101562.56
2023-03-01T15:06:47.403Z,101550.47
2023-03-01T15:09:49.808Z,101546.19
2023-03-01T15:12:53.999Z,101536.66
2023-03-01T15:16:10.170Z,101538.75
2023-03-01T15:19:17.774Z,101539.63
2023-03-01T15:22:20.032Z,101527.16
2023-03-01T15:25:29.825Z,101530.44
2023-03-01T15:28:44.700Z,101513.59
2023-03-01T15:32:06.124Z,101531.38
2023-03-01T15:35:49.130Z,101537.41
2023-03-01T15:38:57.813Z,101534.91
2023-03-01T15:42:01.141Z,101518.22
2023-03-01T15:45:21.912Z,101526.81
2023-03-01T15:48:27.373Z,101521.25
2023-03-01T15:51:38.044Z,101522.56
2023-03-01T15:54:41.983Z,101510.28
2023-03-01T15:57:44.477Z,101511.75
2023-03-01T16:01:00.313Z,101516.78
2023-03-01T16:04:04.540Z,101520.53
2023-03-01T16:07:07.546Z,101529.91
2023-03-01T16:10:10.311Z,101526.50
2023-03-01T16:13:14.009Z,101519.28
2023-03-01T16:16:17.572Z,101528.09
2023-03-01T16:19:20.326Z,101518.66
2023-03-01T16:22:26.431Z,101532.00
2023-03-01T16:25:29.470Z,101531.22
2023-03-01T16:28:32.128Z,101537.25
2023-03-01T16:31:35.245Z,101538.91
2023-03-01T16:34:38.031Z,101544.97
2023-03-01T16:37:41.328Z,101539.13
2023-03-01T16:40:49.202Z,101551.56
2023-03-01T16:43:52.881Z,101533.91
2023-03-01T16:46:55.482Z,101540.34
2023-03-01T16:49:57.786Z,101536.63
2023-03-01T16:53:00.189Z,101538.50
2023-03-01T16:56:02.706Z,101536.63
2023-03-01T16:59:06.390Z,101543.66
2023-03-01T17:02:14.300Z,101547.38
2023-03-01T17:05:17.103Z,101535.72
2023-03-01T17:08:19.902Z,101548.81
2023-03-01T17:11:22.625Z,101548.38
2023-03-01T17:14:25.526Z,101550.91
2023-03-01T17:17:28.601Z,101541.97
2023-03-01T17:20:31.199Z,101543.81
2023-03-01T17:23:34.641Z,101549.00
2023-03-01T17:26:37.377Z,101547.31
2023-03-01T17:29:41.918Z,101551.81
2023-03-01T17:32:45.018Z,101548.56
2023-03-01T17:35:47.940Z,101546.53
2023-03-01T17:38:51.211Z,101552.50
2023-03-01T17:41:54.341Z,101545.75
2023-03-01T17:44:57.921Z,101569.34
2023-03-01T17:48:00.438Z,101560.00
2023-03-01T17:51:07.686Z,101569.25
2023-03-01T17:54:10.265Z,101569.16
2023-03-01T17:57:13.640Z,101583.59
2023-03-01T18:00:17.281Z,101591.25
2023-03-01T18:03:21.694Z,101579.69
2023-03-01T18:06:25.964Z,101592.41
2023-03-01T18:09:29.244Z,101589.59
2023-03-01T18:12:33.101Z,101581.09
2023-03-01T18:15:36.122Z,101589.97
2023-03-01T18:18:39.751Z,101590.34
2023-03-01T18:21:42.387Z,101591.25
2023-03-01T18:24:45.702Z,101581.69
2023-03-01T18:27:48.371Z,101592.88
2023-03-01T18:30:57.262Z,101594.19
2023-03-01T18:34:01.553Z,101604.63
2023-03-01T18:37:09.531Z,101591.72
2023-03-01T18:40:14.225Z,101591.06
2023-03-01T18:43:16.935Z,101586.97
2023-03-01T18:46:23.665Z,101584.00
2023-03-01T18:49:27.553Z,101578.22
2023-03-01T18:52:30.057Z,101587.44
2023-03-01T18:55:36.624Z,101590.69
2023-03-01T18:58:39.316Z,101585.84
2023-03-01T19:01:41.735Z,101589.34
2023-03-01T19:04:44.150Z,101603.06
2023-03-01T19:07:46.728Z,101605.97
2023-03-01T19:10:59.888Z,101597.97
2023-03-01T19:14:04.038Z,101598.66
2023-03-01T19:17:06.561Z,101608.56
2023-03-01T19:20:09.554Z,101604.91
2023-03-01T19:23:13.616Z,101608.28
2023-03-01T19:26:18.575Z,101605.31
2023-03-01T19:29:23.225Z,101600.50
2023-03-01T19:32:26.918Z,101600.16
2023-03-01T19:35:29.973Z,101604.38
2023-03-01T19:38:33.060Z,101614.59
2023-03-01T19:41:37.025Z,101608.03
2023-03-01T19:44:40.542Z,101612.72
2023-03-01T19:47:43.046Z,101607.53
2023-03-01T19:50:45.503Z,101611.25
2023-03-01T19:53:51.097Z,101606.56
2023-03-01T19:56:53.530Z,101600.72
2023-03-01T19:59:55.971Z,101578.84
2023-03-01T20:02:58.372Z,101593.91
2023-03-01T20:06:02.700Z,101594.41
2023-03-01T20:09:19.295Z,101597.75
2023-03-01T20:12:23.231Z,101603.97
2023-03-01T20:15:25.869Z,101607.19
2023-03-01T20:18:28.935Z,101611.53
2023-03-01T20:21:33.402Z,101621.41
2023-03-01T20:24:38.970Z,101622.09
2023-03-01T20:27:41.370Z,101625.94
2023-03-01T20:30:44.367Z,101625.44
2023-03-01T20:33:46.775Z,101628.63
2023-03-01T20:36:49.309Z,101625.13
2023-03-01T20:39:51.725Z,101631.66
2023-03-01T20:42:57.665Z,101641.22
2023-03-01T20:46:05.868Z,101639.69
2023-03-01T20:49:08.410Z,101639.00
2023-03-01T20:52:10.954Z,101640.03
2023-03-01T20:55:13.410Z,101634.88
2023-03-01T20:58:15.742Z,101634.59
2023-03-01T21:01:21.824Z,101630.78
2023-03-01T21:04:24.763Z,101636.78
2023-03-01T21:07:27.227Z,101637.22
2023-03-01T21:10:31.148Z,101635.78
2023-03-01T21:13:34.142Z,101636.69
2023-03-01T21:16:37.127Z,101624.75
2023-03-01T21:19:43.701Z,101633.91
2023-03-01T21:22:46.054Z,101630.19
2023-03-01T21:25:48.450Z,101634.56
2023-03-01T21:28:56.941Z,101641.81
2023-03-01T21:31:59.337Z,101645.22
2023-03-01T21:35:01.727Z,101634.28
2023-03-01T21:38:04.029Z,101636.97
2023-03-01T21:41:18.131Z,101633.13
2023-03-01T21:44:20.446Z,101633.28
2023-03-01T21:47:22.804Z,101632.16
2023-03-01T21:50:25.126Z,101634.59
2023-03-01T21:53:29.360Z,101628.00
2023-03-01T21:56:34.639Z,101629.31
2023-03-01T21:59:37.352Z,101628.00
2023-03-01T22:02:39.657Z,101623.25
2023-03-01T22:05:42.072Z,101622.97
2023-03-01T22:08:48.152Z,101625.94
2023-03-01T22:11:54.497Z,101622.16
2023-03-01T22:14:56.760Z,101620.69
2023-03-01T22:17:59.053Z,101607.16
2023-03-01T22:21:08.396Z,101606.72
2023-03-01T22:24:11.622Z,101616.50
2023-03-01T22:27:13.904Z,101608.78
2023-03-01T22:30:16.527Z,101610.84
2023-03-01T22:33:18.799Z,101610.00
2023-03-01T22:36:21.125Z,101607.34
2023-03-01T22:39:23.451Z,101604.53
2023-03-01T22:42:25.787Z,101619.88
2023-03-01T22:45:32.546Z,101622.47
2023-03-01T22:48:34.976Z,101623.13
2023-03-01T22:51:39.611Z,101613.56
2023-03-01T22:54:41.943Z,101613.09
2023-03-01T22:57:44.237Z,101615.50
2023-03-01T23:00:46.497Z,101614.69
2023-03-01T23:03:49.462Z,101611.78
2023-03-01T23:06:54.040Z,101614.44
2023-03-01T23:09:57.472Z,101612.00
2023-03-01T23:12:59.862Z,101616.72
2023-03-01T23:16:02.130Z,101620.38
2023-03-01T23:19:07.243Z,101618.72
2023-03-01T23:22:09.495Z,101618.59
2023-03-01T23:25:15.167Z,101611.47
2023-03-01T23:28:17.538Z,101610.91
2023-03-01T23:31:20.024Z,101614.41
2023-03-01T23:34:22.308Z,101624.63
2023-03-01T23:37:30.728Z,101626.13
2023-03-01T23:40:33.024Z,101622.03
2023-03-01T23:43:35.292Z,101621.66
2023-03-01T23:46:38.058Z,101606.63
2023-03-01T23:49:40.376Z,101624.81
2023-03-01T23:52:42.789Z,101631.78
2023-03-01T23:55:54.840Z,101630.84
2023-03-01T23:58:59.914Z,101625.81
